sensor_id;sensor_type;location;lat;lon;timestamp;P1;durP1;ratioP1;P2;durP2;ratioP2
43449;SDS011;29041;42.266;23.110;2023-02-15T00:01:20;17.42;;;8.18;;
43449;SDS011;29041;42.266;23.110;2023-02-15T00:04:07;17.50;;;9.00;;
43449;SDS011;29041;42.266;23.110;2023-02-15T00:06:55;18.35;;;9.27;;
43449;SDS011;29041;42.266;23.110;2023-02-15T00:09:42;24.67;;;9.98;;
43449;SDS011;29041;42.266;23.110;2023-02-15T00:12:31;17.85;;;8.45;;
43449;SDS011;29041;42.266;23.110;2023-02-15T00:15:19;21.30;;;10.18;;
43449;SDS011;29041;42.266;23.110;2023-02-15T00:18:06;21.52;;;11.73;;
43449;SDS011;29041;42.266;23.110;2023-02-15T00:20:54;18.15;;;9.57;;
43449;SDS011;29041;42.266;23.110;2023-02-15T00:23:41;19.63;;;10.23;;
43449;SDS011;29041;42.266;23.110;2023-02-15T00:26:28;25.27;;;11.38;;
43449;SDS011;29041;42.266;23.110;2023-02-15T00:29:17;17.95;;;9.73;;
43449;SDS011;29041;42.266;23.110;2023-02-15T00:32:07;13.88;;;9.48;;
43449;SDS011;29041;42.266;23.110;2023-02-15T00:34:55;21.38;;;10.95;;
43449;SDS011;29041;42.266;23.110;2023-02-15T00:37:42;21.35;;;10.48;;
43449;SDS011;29041;42.266;23.110;2023-02-15T00:40:29;16.08;;;8.63;;
43449;SDS011;29041;42.266;23.110;2023-02-15T00:43:16;22.83;;;9.85;;
43449;SDS011;29041;42.266;23.110;2023-02-15T00:46:03;19.67;;;9.43;;
43449;SDS011;29041;42.266;23.110;2023-02-15T00:48:53;17.67;;;9.23;;
43449;SDS011;29041;42.266;23.110;2023-02-15T00:51:40;15.00;;;8.13;;
43449;SDS011;29041;42.266;23.110;2023-02-15T00:54:32;25.67;;;9.82;;
43449;SDS011;29041;42.266;23.110;2023-02-15T00:57:20;20.95;;;11.18;;
43449;SDS011;29041;42.266;23.110;2023-02-15T01:00:07;18.77;;;10.35;;
43449;SDS011;29041;42.266;23.110;2023-02-15T01:02:55;21.73;;;10.02;;
43449;SDS011;29041;42.266;23.110;2023-02-15T01:05:44;19.17;;;10.27;;
43449;SDS011;29041;42.266;23.110;2023-02-15T01:08:31;20.25;;;11.80;;
43449;SDS011;29041;42.266;23.110;2023-02-15T01:11:19;23.48;;;10.88;;
43449;SDS011;29041;42.266;23.110;2023-02-15T01:14:08;23.45;;;10.95;;
43449;SDS011;29041;42.266;23.110;2023-02-15T01:16:56;23.30;;;12.98;;
43449;SDS011;29041;42.266;23.110;2023-02-15T01:19:43;21.15;;;10.40;;
43449;SDS011;29041;42.266;23.110;2023-02-15T01:22:32;23.73;;;11.45;;
43449;SDS011;29041;42.266;23.110;2023-02-15T01:25:19;20.25;;;9.68;;
43449;SDS011;29041;42.266;23.110;2023-02-15T01:28:08;19.02;;;9.68;;
43449;SDS011;29041;42.266;23.110;2023-02-15T01:30:55;23.38;;;9.77;;
43449;SDS011;29041;42.266;23.110;2023-02-15T01:33:45;24.92;;;11.50;;
43449;SDS011;29041;42.266;23.110;2023-02-15T01:36:33;20.75;;;9.70;;
43449;SDS011;29041;42.266;23.110;2023-02-15T01:39:23;23.63;;;9.60;;
43449;SDS011;29041;42.266;23.110;2023-02-15T01:42:10;23.92;;;10.68;;
43449;SDS011;29041;42.266;23.110;2023-02-15T01:44:59;25.20;;;10.90;;
43449;SDS011;29041;42.266;23.110;2023-02-15T01:47:48;22.13;;;9.98;;
43449;SDS011;29041;42.266;23.110;2023-02-15T01:50:39;24.60;;;12.05;;
43449;SDS011;29041;42.266;23.110;2023-02-15T01:53:30;30.42;;;14.10;;
43449;SDS011;29041;42.266;23.110;2023-02-15T01:56:25;26.48;;;10.50;;
43449;SDS011;29041;42.266;23.110;2023-02-15T01:59:20;32.05;;;13.45;;
43449;SDS011;29041;42.266;23.110;2023-02-15T02:02:09;22.67;;;10.50;;
43449;SDS011;29041;42.266;23.110;2023-02-15T02:05:00;26.17;;;12.63;;
43449;SDS011;29041;42.266;23.110;2023-02-15T02:07:52;23.92;;;10.23;;
43449;SDS011;29041;42.266;23.110;2023-02-15T02:10:45;23.25;;;10.15;;
43449;SDS011;29041;42.266;23.110;2023-02-15T02:16:04;24.75;;;11.60;;
43449;SDS011;29041;42.266;23.110;2023-02-15T02:19:07;20.98;;;11.00;;
43449;SDS011;29041;42.266;23.110;2023-02-15T02:25:24;26.13;;;10.95;;
43449;SDS011;29041;42.266;23.110;2023-02-15T02:28:40;28.83;;;11.85;;
43449;SDS011;29041;42.266;23.110;2023-02-15T02:31:47;22.52;;;11.32;;
43449;SDS011;29041;42.266;23.110;2023-02-15T02:34:54;23.27;;;9.77;;
43449;SDS011;29041;42.266;23.110;2023-02-15T02:37:48;22.92;;;10.85;;
43449;SDS011;29041;42.266;23.110;2023-02-15T02:40:43;24.27;;;11.35;;
43449;SDS011;29041;42.266;23.110;2023-02-15T02:43:38;26.42;;;10.85;;
43449;SDS011;29041;42.266;23.110;2023-02-15T02:46:32;20.67;;;9.75;;
43449;SDS011;29041;42.266;23.110;2023-02-15T02:49:30;26.88;;;11.82;;
43449;SDS011;29041;42.266;23.110;2023-02-15T02:52:37;22.45;;;11.95;;
43449;SDS011;29041;42.266;23.110;2023-02-15T02:55:30;27.33;;;11.05;;
43449;SDS011;29041;42.266;23.110;2023-02-15T02:58:21;18.23;;;7.97;;
43449;SDS011;29041;42.266;23.110;2023-02-15T03:04:05;21.30;;;8.82;;
43449;SDS011;29041;42.266;23.110;2023-02-15T03:06:57;17.83;;;8.73;;
43449;SDS011;29041;42.266;23.110;2023-02-15T03:09:50;21.00;;;9.20;;
43449;SDS011;29041;42.266;23.110;2023-02-15T03:12:39;22.38;;;10.02;;
43449;SDS011;29041;42.266;23.110;2023-02-15T03:15:29;16.67;;;9.93;;
43449;SDS011;29041;42.266;23.110;2023-02-15T03:18:39;19.00;;;8.68;;
43449;SDS011;29041;42.266;23.110;2023-02-15T03:21:38;17.02;;;8.30;;
43449;SDS011;29041;42.266;23.110;2023-02-15T03:24:35;17.60;;;8.50;;
43449;SDS011;29041;42.266;23.110;2023-02-15T03:27:26;18.58;;;8.38;;
43449;SDS011;29041;42.266;23.110;2023-02-15T03:30:18;19.60;;;9.00;;
43449;SDS011;29041;42.266;23.110;2023-02-15T03:33:08;18.58;;;8.73;;
43449;SDS011;29041;42.266;23.110;2023-02-15T03:35:58;15.10;;;8.82;;
43449;SDS011;29041;42.266;23.110;2023-02-15T03:38:49;17.40;;;7.50;;
43449;SDS011;29041;42.266;23.110;2023-02-15T03:41:48;16.65;;;8.45;;
43449;SDS011;29041;42.266;23.110;2023-02-15T03:44:46;15.18;;;6.25;;
43449;SDS011;29041;42.266;23.110;2023-02-15T03:47:38;14.55;;;7.00;;
43449;SDS011;29041;42.266;23.110;2023-02-15T03:50:29;17.27;;;7.97;;
43449;SDS011;29041;42.266;23.110;2023-02-15T03:53:47;40.80;;;14.30;;
43449;SDS011;29041;42.266;23.110;2023-02-15T03:56:36;24.30;;;10.27;;
43449;SDS011;29041;42.266;23.110;2023-02-15T03:59:30;19.65;;;8.23;;
43449;SDS011;29041;42.266;23.110;2023-02-15T04:02:37;11.63;;;6.82;;
43449;SDS011;29041;42.266;23.110;2023-02-15T04:05:31;22.05;;;8.85;;
43449;SDS011;29041;42.266;23.110;2023-02-15T04:08:18;22.88;;;7.63;;
43449;SDS011;29041;42.266;23.110;2023-02-15T04:11:05;21.50;;;9.60;;
43449;SDS011;29041;42.266;23.110;2023-02-15T04:13:51;21.08;;;10.32;;
43449;SDS011;29041;42.266;23.110;2023-02-15T04:16:41;81.70;;;23.35;;
43449;SDS011;29041;42.266;23.110;2023-02-15T04:19:29;21.48;;;9.88;;
43449;SDS011;29041;42.266;23.110;2023-02-15T04:22:33;22.70;;;8.70;;
43449;SDS011;29041;42.266;23.110;2023-02-15T04:25:40;20.67;;;9.82;;
43449;SDS011;29041;42.266;23.110;2023-02-15T04:28:28;19.45;;;8.73;;
43449;SDS011;29041;42.266;23.110;2023-02-15T04:31:16;10.77;;;7.00;;
43449;SDS011;29041;42.266;23.110;2023-02-15T04:34:04;23.20;;;10.93;;
43449;SDS011;29041;42.266;23.110;2023-02-15T04:36:53;19.92;;;11.05;;
43449;SDS011;29041;42.266;23.110;2023-02-15T04:39:40;23.50;;;8.88;;
43449;SDS011;29041;42.266;23.110;2023-02-15T04:42:27;22.60;;;10.13;;
43449;SDS011;29041;42.266;23.110;2023-02-15T04:45:14;29.38;;;10.80;;
43449;SDS011;29041;42.266;23.110;2023-02-15T04:48:02;21.60;;;9.23;;
43449;SDS011;29041;42.266;23.110;2023-02-15T04:50:49;24.67;;;10.00;;
43449;SDS011;29041;42.266;23.110;2023-02-15T04:53:40;24.95;;;11.07;;
43449;SDS011;29041;42.266;23.110;2023-02-15T04:56:28;23.17;;;10.55;;
43449;SDS011;29041;42.266;23.110;2023-02-15T04:59:15;19.67;;;9.98;;
43449;SDS011;29041;42.266;23.110;2023-02-15T05:02:02;26.15;;;11.73;;
43449;SDS011;29041;42.266;23.110;2023-02-15T05:04:50;25.42;;;10.63;;
43449;SDS011;29041;42.266;23.110;2023-02-15T05:07:37;24.08;;;11.10;;
43449;SDS011;29041;42.266;23.110;2023-02-15T05:10:26;22.58;;;10.50;;
43449;SDS011;29041;42.266;23.110;2023-02-15T05:13:13;27.40;;;11.13;;
43449;SDS011;29041;42.266;23.110;2023-02-15T05:16:00;26.20;;;12.25;;
43449;SDS011;29041;42.266;23.110;2023-02-15T05:18:47;30.90;;;13.40;;
43449;SDS011;29041;42.266;23.110;2023-02-15T05:21:34;29.70;;;13.27;;
43449;SDS011;29041;42.266;23.110;2023-02-15T05:24:22;31.85;;;14.70;;
43449;SDS011;29041;42.266;23.110;2023-02-15T05:27:27;56.45;;;20.23;;
43449;SDS011;29041;42.266;23.110;2023-02-15T05:30:32;31.00;;;12.70;;
43449;SDS011;29041;42.266;23.110;2023-02-15T05:33:20;36.38;;;16.30;;
43449;SDS011;29041;42.266;23.110;2023-02-15T05:36:07;26.83;;;10.57;;
43449;SDS011;29041;42.266;23.110;2023-02-15T05:38:55;27.88;;;13.55;;
43449;SDS011;29041;42.266;23.110;2023-02-15T05:41:42;31.67;;;13.02;;
43449;SDS011;29041;42.266;23.110;2023-02-15T05:44:32;32.95;;;13.20;;
43449;SDS011;29041;42.266;23.110;2023-02-15T05:47:19;30.17;;;11.35;;
43449;SDS011;29041;42.266;23.110;2023-02-15T05:50:08;23.13;;;11.20;;
43449;SDS011;29041;42.266;23.110;2023-02-15T05:52:55;26.20;;;12.55;;
43449;SDS011;29041;42.266;23.110;2023-02-15T05:55:42;25.45;;;12.93;;
43449;SDS011;29041;42.266;23.110;2023-02-15T05:58:32;27.50;;;13.63;;
43449;SDS011;29041;42.266;23.110;2023-02-15T06:01:22;31.40;;;14.55;;
43449;SDS011;29041;42.266;23.110;2023-02-15T06:04:09;37.65;;;13.45;;
43449;SDS011;29041;42.266;23.110;2023-02-15T06:06:56;32.20;;;13.05;;
43449;SDS011;29041;42.266;23.110;2023-02-15T06:09:46;20.40;;;10.55;;
43449;SDS011;29041;42.266;23.110;2023-02-15T06:12:33;27.60;;;12.32;;
43449;SDS011;29041;42.266;23.110;2023-02-15T06:15:20;26.63;;;11.60;;
43449;SDS011;29041;42.266;23.110;2023-02-15T06:18:08;29.63;;;14.75;;
43449;SDS011;29041;42.266;23.110;2023-02-15T06:20:56;22.13;;;10.77;;
43449;SDS011;29041;42.266;23.110;2023-02-15T06:23:43;21.73;;;10.35;;
43449;SDS011;29041;42.266;23.110;2023-02-15T06:26:30;22.67;;;10.20;;
43449;SDS011;29041;42.266;23.110;2023-02-15T06:29:18;29.67;;;13.32;;
43449;SDS011;29041;42.266;23.110;2023-02-15T06:32:05;31.45;;;13.10;;
43449;SDS011;29041;42.266;23.110;2023-02-15T06:34:54;28.55;;;12.05;;
43449;SDS011;29041;42.266;23.110;2023-02-15T06:37:41;23.88;;;10.27;;
43449;SDS011;29041;42.266;23.110;2023-02-15T06:40:28;36.53;;;13.93;;
43449;SDS011;29041;42.266;23.110;2023-02-15T06:43:15;40.17;;;14.55;;
43449;SDS011;29041;42.266;23.110;2023-02-15T06:46:02;34.22;;;16.25;;
43449;SDS011;29041;42.266;23.110;2023-02-15T06:48:50;33.38;;;16.65;;
43449;SDS011;29041;42.266;23.110;2023-02-15T06:51:38;33.55;;;13.82;;
43449;SDS011;29041;42.266;23.110;2023-02-15T06:54:25;21.35;;;12.50;;
43449;SDS011;29041;42.266;23.110;2023-02-15T06:57:12;32.80;;;16.50;;
43449;SDS011;29041;42.266;23.110;2023-02-15T06:59:59;32.83;;;16.38;;
43449;SDS011;29041;42.266;23.110;2023-02-15T07:02:47;34.25;;;17.08;;
43449;SDS011;29041;42.266;23.110;2023-02-15T07:05:35;33.03;;;17.30;;
43449;SDS011;29041;42.266;23.110;2023-02-15T07:08:24;31.02;;;14.35;;
43449;SDS011;29041;42.266;23.110;2023-02-15T07:11:12;40.67;;;14.75;;
43449;SDS011;29041;42.266;23.110;2023-02-15T07:14:17;28.17;;;14.30;;
43449;SDS011;29041;42.266;23.110;2023-02-15T07:17:05;38.00;;;14.50;;
43449;SDS011;29041;42.266;23.110;2023-02-15T07:19:52;31.70;;;15.20;;
43449;SDS011;29041;42.266;23.110;2023-02-15T07:28:36;28.83;;;14.55;;
43449;SDS011;29041;42.266;23.110;2023-02-15T07:58:15;43.20;;;15.90;;
43449;SDS011;29041;42.266;23.110;2023-02-15T08:01:34;42.20;;;18.00;;
43449;SDS011;29041;42.266;23.110;2023-02-15T08:19:13;39.28;;;17.38;;
43449;SDS011;29041;42.266;23.110;2023-02-15T08:22:11;44.42;;;19.30;;
43449;SDS011;29041;42.266;23.110;2023-02-15T08:25:07;45.90;;;24.38;;
43449;SDS011;29041;42.266;23.110;2023-02-15T08:28:00;33.90;;;17.10;;
43449;SDS011;29041;42.266;23.110;2023-02-15T08:30:51;41.67;;;17.27;;
43449;SDS011;29041;42.266;23.110;2023-02-15T08:33:53;25.85;;;12.70;;
43449;SDS011;29041;42.266;23.110;2023-02-15T08:37:11;26.88;;;12.57;;
43449;SDS011;29041;42.266;23.110;2023-02-15T08:40:05;32.20;;;12.98;;
43449;SDS011;29041;42.266;23.110;2023-02-15T08:42:59;32.25;;;14.40;;
43449;SDS011;29041;42.266;23.110;2023-02-15T08:45:46;26.48;;;12.27;;
43449;SDS011;29041;42.266;23.110;2023-02-15T08:48:34;28.65;;;12.63;;
43449;SDS011;29041;42.266;23.110;2023-02-15T08:51:24;24.58;;;12.57;;
43449;SDS011;29041;42.266;23.110;2023-02-15T08:54:15;24.02;;;11.48;;
43449;SDS011;29041;42.266;23.110;2023-02-15T08:57:03;24.27;;;11.13;;
43449;SDS011;29041;42.266;23.110;2023-02-15T08:59:52;23.73;;;10.98;;
43449;SDS011;29041;42.266;23.110;2023-02-15T09:52:36;16.65;;;9.95;;
43449;SDS011;29041;42.266;23.110;2023-02-15T09:56:24;12.65;;;6.28;;
43449;SDS011;29041;42.266;23.110;2023-02-15T10:02:14;17.05;;;8.73;;
43449;SDS011;29041;42.266;23.110;2023-02-15T10:05:30;15.48;;;7.78;;
43449;SDS011;29041;42.266;23.110;2023-02-15T10:08:40;21.17;;;11.02;;
43449;SDS011;29041;42.266;23.110;2023-02-15T10:12:02;20.77;;;10.10;;
43449;SDS011;29041;42.266;23.110;2023-02-15T10:15:28;15.77;;;8.52;;
43449;SDS011;29041;42.266;23.110;2023-02-15T10:18:44;16.17;;;9.00;;
43449;SDS011;29041;42.266;23.110;2023-02-15T10:21:44;15.10;;;8.32;;
43449;SDS011;29041;42.266;23.110;2023-02-15T10:31:31;13.27;;;8.40;;
43449;SDS011;29041;42.266;23.110;2023-02-15T10:34:29;13.60;;;8.75;;
43449;SDS011;29041;42.266;23.110;2023-02-15T10:52:44;33.42;;;11.52;;
43449;SDS011;29041;42.266;23.110;2023-02-15T11:11:44;18.35;;;9.57;;
43449;SDS011;29041;42.266;23.110;2023-02-15T11:14:52;9.18;;;6.65;;
43449;SDS011;29041;42.266;23.110;2023-02-15T11:17:52;11.85;;;6.75;;
43449;SDS011;29041;42.266;23.110;2023-02-15T11:20:52;15.68;;;9.02;;
43449;SDS011;29041;42.266;23.110;2023-02-15T11:23:57;10.93;;;6.00;;
43449;SDS011;29041;42.266;23.110;2023-02-15T11:27:04;17.52;;;9.98;;
43449;SDS011;29041;42.266;23.110;2023-02-15T11:30:05;10.95;;;6.60;;
43449;SDS011;29041;42.266;23.110;2023-02-15T11:33:15;10.63;;;6.82;;
43449;SDS011;29041;42.266;23.110;2023-02-15T11:36:38;11.93;;;6.40;;
43449;SDS011;29041;42.266;23.110;2023-02-15T11:39:39;13.55;;;6.78;;
43449;SDS011;29041;42.266;23.110;2023-02-15T11:46:14;9.20;;;6.45;;
43449;SDS011;29041;42.266;23.110;2023-02-15T11:49:22;11.52;;;6.85;;
43449;SDS011;29041;42.266;23.110;2023-02-15T12:07:04;12.15;;;6.45;;
43449;SDS011;29041;42.266;23.110;2023-02-15T12:10:22;13.57;;;8.63;;
43449;SDS011;29041;42.266;23.110;2023-02-15T12:13:29;17.60;;;9.23;;
43449;SDS011;29041;42.266;23.110;2023-02-15T12:40:00;12.48;;;7.88;;
43449;SDS011;29041;42.266;23.110;2023-02-15T12:43:34;12.43;;;6.93;;
43449;SDS011;29041;42.266;23.110;2023-02-15T12:46:35;26.23;;;13.40;;
43449;SDS011;29041;42.266;23.110;2023-02-15T14:00:15;11.18;;;6.78;;
43449;SDS011;29041;42.266;23.110;2023-02-15T14:06:41;13.00;;;7.03;;
43449;SDS011;29041;42.266;23.110;2023-02-15T14:09:40;10.38;;;6.70;;
43449;SDS011;29041;42.266;23.110;2023-02-15T14:12:37;12.98;;;7.53;;
43449;SDS011;29041;42.266;23.110;2023-02-15T14:46:52;12.63;;;8.30;;
43449;SDS011;29041;42.266;23.110;2023-02-15T14:49:49;13.93;;;8.65;;
43449;SDS011;29041;42.266;23.110;2023-02-15T14:52:41;15.10;;;8.75;;
43449;SDS011;29041;42.266;23.110;2023-02-15T14:56:16;14.32;;;8.63;;
43449;SDS011;29041;42.266;23.110;2023-02-15T14:59:25;18.13;;;7.88;;
43449;SDS011;29041;42.266;23.110;2023-02-15T15:02:20;15.32;;;7.97;;
43449;SDS011;29041;42.266;23.110;2023-02-15T15:05:16;15.95;;;8.45;;
43449;SDS011;29041;42.266;23.110;2023-02-15T15:08:19;16.17;;;8.85;;
43449;SDS011;29041;42.266;23.110;2023-02-15T15:14:40;12.48;;;7.35;;
43449;SDS011;29041;42.266;23.110;2023-02-15T15:20:45;18.75;;;8.90;;
43449;SDS011;29041;42.266;23.110;2023-02-15T15:23:42;14.27;;;8.80;;
43449;SDS011;29041;42.266;23.110;2023-02-15T15:26:50;12.60;;;7.80;;
43449;SDS011;29041;42.266;23.110;2023-02-15T15:34:14;15.77;;;8.18;;
43449;SDS011;29041;42.266;23.110;2023-02-15T15:47:21;15.88;;;9.68;;
43449;SDS011;29041;42.266;23.110;2023-02-15T15:50:37;24.98;;;11.27;;
43449;SDS011;29041;42.266;23.110;2023-02-15T15:53:29;27.30;;;13.27;;
43449;SDS011;29041;42.266;23.110;2023-02-15T15:56:38;27.95;;;14.45;;
43449;SDS011;29041;42.266;23.110;2023-02-15T15:59:31;20.27;;;10.43;;
43449;SDS011;29041;42.266;23.110;2023-02-15T16:02:28;23.10;;;11.98;;
43449;SDS011;29041;42.266;23.110;2023-02-15T16:05:25;27.80;;;13.98;;
43449;SDS011;29041;42.266;23.110;2023-02-15T16:08:15;31.80;;;18.33;;
43449;SDS011;29041;42.266;23.110;2023-02-15T16:11:16;73.93;;;29.05;;
43449;SDS011;29041;42.266;23.110;2023-02-15T16:14:14;71.10;;;27.33;;
43449;SDS011;29041;42.266;23.110;2023-02-15T16:17:14;49.33;;;20.35;;
43449;SDS011;29041;42.266;23.110;2023-02-15T16:20:13;22.27;;;10.45;;
43449;SDS011;29041;42.266;23.110;2023-02-15T16:23:10;19.42;;;9.70;;
43449;SDS011;29041;42.266;23.110;2023-02-15T16:26:13;16.10;;;9.23;;
43449;SDS011;29041;42.266;23.110;2023-02-15T16:29:16;21.00;;;10.48;;
43449;SDS011;29041;42.266;23.110;2023-02-15T16:32:14;24.48;;;9.82;;
43449;SDS011;29041;42.266;23.110;2023-02-15T16:35:12;22.27;;;12.02;;
43449;SDS011;29041;42.266;23.110;2023-02-15T16:38:09;28.17;;;11.07;;
43449;SDS011;29041;42.266;23.110;2023-02-15T16:52:03;20.58;;;10.25;;
43449;SDS011;29041;42.266;23.110;2023-02-15T16:55:18;23.52;;;11.73;;
43449;SDS011;29041;42.266;23.110;2023-02-15T16:58:12;29.05;;;13.65;;
43449;SDS011;29041;42.266;23.110;2023-02-15T17:14:09;20.55;;;11.25;;
43449;SDS011;29041;42.266;23.110;2023-02-15T17:17:13;24.40;;;11.30;;
43449;SDS011;29041;42.266;23.110;2023-02-15T17:20:15;34.65;;;16.75;;
43449;SDS011;29041;42.266;23.110;2023-02-15T17:23:19;34.13;;;16.42;;
43449;SDS011;29041;42.266;23.110;2023-02-15T17:26:13;27.20;;;12.70;;
43449;SDS011;29041;42.266;23.110;2023-02-15T17:29:14;33.35;;;14.65;;
43449;SDS011;29041;42.266;23.110;2023-02-15T17:32:27;27.55;;;14.05;;
43449;SDS011;29041;42.266;23.110;2023-02-15T17:35:19;24.55;;;13.52;;
43449;SDS011;29041;42.266;23.110;2023-02-15T17:38:16;29.55;;;13.38;;
43449;SDS011;29041;42.266;23.110;2023-02-15T17:41:06;18.35;;;10.15;;
43449;SDS011;29041;42.266;23.110;2023-02-15T17:43:54;21.20;;;11.13;;
43449;SDS011;29041;42.266;23.110;2023-02-15T17:46:43;23.95;;;12.23;;
43449;SDS011;29041;42.266;23.110;2023-02-15T17:49:35;20.30;;;11.00;;
43449;SDS011;29041;42.266;23.110;2023-02-15T17:52:25;21.65;;;11.52;;
43449;SDS011;29041;42.266;23.110;2023-02-15T17:55:20;22.05;;;11.95;;
43449;SDS011;29041;42.266;23.110;2023-02-15T18:08:45;31.08;;;12.77;;
43449;SDS011;29041;42.266;23.110;2023-02-15T18:11:49;70.25;;;25.92;;
43449;SDS011;29041;42.266;23.110;2023-02-15T18:14:36;45.78;;;21.20;;
43449;SDS011;29041;42.266;23.110;2023-02-15T18:17:25;47.63;;;23.63;;
43449;SDS011;29041;42.266;23.110;2023-02-15T18:20:18;43.05;;;23.38;;
43449;SDS011;29041;42.266;23.110;2023-02-15T18:23:08;49.58;;;25.08;;
43449;SDS011;29041;42.266;23.110;2023-02-15T18:26:01;48.67;;;22.02;;
43449;SDS011;29041;42.266;23.110;2023-02-15T18:28:48;47.10;;;23.65;;
43449;SDS011;29041;42.266;23.110;2023-02-15T18:31:35;61.83;;;25.10;;
43449;SDS011;29041;42.266;23.110;2023-02-15T18:34:24;59.53;;;24.50;;
43449;SDS011;29041;42.266;23.110;2023-02-15T18:37:14;45.90;;;19.35;;
43449;SDS011;29041;42.266;23.110;2023-02-15T18:40:04;47.72;;;21.35;;
43449;SDS011;29041;42.266;23.110;2023-02-15T18:42:53;61.42;;;26.80;;
43449;SDS011;29041;42.266;23.110;2023-02-15T18:45:41;39.67;;;15.85;;
43449;SDS011;29041;42.266;23.110;2023-02-15T18:48:32;35.60;;;16.55;;
43449;SDS011;29041;42.266;23.110;2023-02-15T18:51:19;27.23;;;13.32;;
43449;SDS011;29041;42.266;23.110;2023-02-15T18:54:14;43.25;;;18.38;;
43449;SDS011;29041;42.266;23.110;2023-02-15T18:59:52;27.58;;;14.57;;
43449;SDS011;29041;42.266;23.110;2023-02-15T19:02:39;42.35;;;18.67;;
43449;SDS011;29041;42.266;23.110;2023-02-15T19:05:27;33.05;;;15.05;;
43449;SDS011;29041;42.266;23.110;2023-02-15T19:08:16;46.15;;;24.85;;
43449;SDS011;29041;42.266;23.110;2023-02-15T19:11:10;56.35;;;21.98;;
43449;SDS011;29041;42.266;23.110;2023-02-15T19:14:00;54.55;;;24.83;;
43449;SDS011;29041;42.266;23.110;2023-02-15T19:16:49;44.33;;;21.00;;
43449;SDS011;29041;42.266;23.110;2023-02-15T19:19:36;46.05;;;22.73;;
43449;SDS011;29041;42.266;23.110;2023-02-15T19:22:25;45.08;;;23.27;;
43449;SDS011;29041;42.266;23.110;2023-02-15T19:25:46;42.55;;;21.55;;
43449;SDS011;29041;42.266;23.110;2023-02-15T19:28:58;44.75;;;20.00;;
43449;SDS011;29041;42.266;23.110;2023-02-15T19:32:02;38.75;;;17.85;;
43449;SDS011;29041;42.266;23.110;2023-02-15T19:34:55;44.63;;;20.70;;
43449;SDS011;29041;42.266;23.110;2023-02-15T19:37:43;45.85;;;24.08;;
43449;SDS011;29041;42.266;23.110;2023-02-15T19:40:34;46.80;;;22.27;;
43449;SDS011;29041;42.266;23.110;2023-02-15T19:43:24;60.10;;;24.52;;
43449;SDS011;29041;42.266;23.110;2023-02-15T19:46:13;61.20;;;26.15;;
43449;SDS011;29041;42.266;23.110;2023-02-15T19:49:07;51.20;;;24.70;;
43449;SDS011;29041;42.266;23.110;2023-02-15T19:51:55;60.35;;;31.17;;
43449;SDS011;29041;42.266;23.110;2023-02-15T19:54:44;59.25;;;26.42;;
43449;SDS011;29041;42.266;23.110;2023-02-15T19:57:35;50.78;;;24.52;;
43449;SDS011;29041;42.266;23.110;2023-02-15T20:00:29;43.28;;;20.23;;
43449;SDS011;29041;42.266;23.110;2023-02-15T20:14:20;52.22;;;23.35;;
43449;SDS011;29041;42.266;23.110;2023-02-15T20:17:49;65.00;;;27.27;;
43449;SDS011;29041;42.266;23.110;2023-02-15T20:26:15;51.53;;;24.33;;
43449;SDS011;29041;42.266;23.110;2023-02-15T21:06:47;43.92;;;21.70;;
43449;SDS011;29041;42.266;23.110;2023-02-15T21:09:44;54.28;;;24.20;;
43449;SDS011;29041;42.266;23.110;2023-02-15T21:13:00;42.60;;;20.20;;
43449;SDS011;29041;42.266;23.110;2023-02-15T21:16:21;50.75;;;21.85;;
43449;SDS011;29041;42.266;23.110;2023-02-15T21:19:10;37.15;;;19.17;;
43449;SDS011;29041;42.266;23.110;2023-02-15T21:21:59;58.08;;;24.25;;
43449;SDS011;29041;42.266;23.110;2023-02-15T21:24:48;44.50;;;20.70;;
43449;SDS011;29041;42.266;23.110;2023-02-15T21:27:39;45.65;;;21.73;;
43449;SDS011;29041;42.266;23.110;2023-02-15T21:30:26;56.45;;;23.33;;
43449;SDS011;29041;42.266;23.110;2023-02-15T21:33:13;61.92;;;27.25;;
43449;SDS011;29041;42.266;23.110;2023-02-15T21:36:00;64.07;;;29.77;;
43449;SDS011;29041;42.266;23.110;2023-02-15T21:38:50;55.72;;;23.73;;
43449;SDS011;29041;42.266;23.110;2023-02-15T21:41:38;50.15;;;21.23;;
43449;SDS011;29041;42.266;23.110;2023-02-15T21:44:43;46.92;;;20.35;;
43449;SDS011;29041;42.266;23.110;2023-02-15T21:48:02;45.72;;;19.25;;
43449;SDS011;29041;42.266;23.110;2023-02-15T21:50:49;40.58;;;18.08;;
43449;SDS011;29041;42.266;23.110;2023-02-15T21:53:56;44.58;;;17.35;;
43449;SDS011;29041;42.266;23.110;2023-02-15T21:56:43;41.20;;;17.55;;
43449;SDS011;29041;42.266;23.110;2023-02-15T21:59:37;40.15;;;18.98;;
43449;SDS011;29041;42.266;23.110;2023-02-15T22:02:27;42.90;;;18.20;;
43449;SDS011;29041;42.266;23.110;2023-02-15T22:05:16;37.00;;;17.00;;
43449;SDS011;29041;42.266;23.110;2023-02-15T22:08:08;61.80;;;26.48;;
43449;SDS011;29041;42.266;23.110;2023-02-15T22:10:59;47.75;;;20.65;;
43449;SDS011;29041;42.266;23.110;2023-02-15T22:13:47;34.08;;;17.52;;
43449;SDS011;29041;42.266;23.110;2023-02-15T22:16:34;44.75;;;20.15;;
43449;SDS011;29041;42.266;23.110;2023-02-15T22:19:21;45.33;;;19.33;;
43449;SDS011;29041;42.266;23.110;2023-02-15T22:22:08;50.08;;;18.63;;
43449;SDS011;29041;42.266;23.110;2023-02-15T22:24:56;45.17;;;19.15;;
43449;SDS011;29041;42.266;23.110;2023-02-15T22:27:45;50.80;;;20.05;;
43449;SDS011;29041;42.266;23.110;2023-02-15T22:30:34;53.83;;;21.38;;
43449;SDS011;29041;42.266;23.110;2023-02-15T22:33:23;31.70;;;16.40;;
43449;SDS011;29041;42.266;23.110;2023-02-15T22:36:17;52.00;;;20.70;;
43449;SDS011;29041;42.266;23.110;2023-02-15T22:39:09;43.63;;;19.67;;
43449;SDS011;29041;42.266;23.110;2023-02-15T22:41:56;43.28;;;19.10;;
43449;SDS011;29041;42.266;23.110;2023-02-15T22:44:45;52.45;;;21.17;;
43449;SDS011;29041;42.266;23.110;2023-02-15T22:47:32;53.70;;;22.08;;
43449;SDS011;29041;42.266;23.110;2023-02-15T22:50:23;56.80;;;23.23;;
43449;SDS011;29041;42.266;23.110;2023-02-15T22:53:11;53.45;;;21.20;;
43449;SDS011;29041;42.266;23.110;2023-02-15T22:55:59;47.42;;;22.48;;
43449;SDS011;29041;42.266;23.110;2023-02-15T22:58:51;50.08;;;22.33;;
43449;SDS011;29041;42.266;23.110;2023-02-15T23:01:43;56.58;;;22.98;;
43449;SDS011;29041;42.266;23.110;2023-02-15T23:04:30;54.58;;;21.58;;
43449;SDS011;29041;42.266;23.110;2023-02-15T23:07:18;45.92;;;21.05;;
43449;SDS011;29041;42.266;23.110;2023-02-15T23:10:07;51.85;;;22.42;;
43449;SDS011;29041;42.266;23.110;2023-02-15T23:13:11;51.78;;;22.02;;
43449;SDS011;29041;42.266;23.110;2023-02-15T23:16:12;38.78;;;17.48;;
43449;SDS011;29041;42.266;23.110;2023-02-15T23:19:09;40.33;;;16.67;;
43449;SDS011;29041;42.266;23.110;2023-02-15T23:22:02;49.65;;;20.95;;
43449;SDS011;29041;42.266;23.110;2023-02-15T23:24:50;53.03;;;21.15;;
43449;SDS011;29041;42.266;23.110;2023-02-15T23:27:38;43.35;;;18.13;;
43449;SDS011;29041;42.266;23.110;2023-02-15T23:30:43;47.00;;;21.55;;
43449;SDS011;29041;42.266;23.110;2023-02-15T23:33:32;50.50;;;19.58;;
43449;SDS011;29041;42.266;23.110;2023-02-15T23:36:26;45.90;;;19.85;;